Time;durP1;ratioP1;P1;durP2;ratioP2;P2;SDS_P1;SDS_P2;PMS_P1;PMS_P2;Temp;Humidity;BMP_temperature;BMP_pressure;BME280_temperature;BME280_humidity;BME280_pressure;Samples;Min_cycle;Max_cycle;Signal;HPM_P1;HPM_P2
2021/08/03 00:01:23;;;;;;;28.95;21.85;;;;;;;22.72;81.51;100441.07;1799522;79;22579;-82
2021/08/03 00:04:07;;;;;;;26.33;22.27;;;;;;;22.65;81.66;100433.43;1759659;81;20884;-80
2021/08/03 00:06:34;;;;;;;24.55;22.13;;;;;;;22.63;81.91;100435.45;1756748;81;21132;-81
2021/08/03 00:09:01;;;;;;;28.62;22.73;;;;;;;22.60;82.28;100441.98;1758537;81;20877;-80
2021/08/03 00:11:28;;;;;;;26.82;23.73;;;;;;;22.59;82.56;100440.81;1758498;80;20936;-80
2021/08/03 00:13:58;;;;;;;26.93;22.27;;;;;;;22.58;83.09;100441.32;1758531;81;20865;-80
2021/08/03 00:16:25;;;;;;;30.82;22.02;;;;;;;22.58;83.35;100455.19;1758382;81;21500;-77
2021/08/03 00:18:53;;;;;;;24.80;20.60;;;;;;;22.55;83.51;100454.53;1758352;80;21146;-79
2021/08/03 00:21:20;;;;;;;27.60;21.15;;;;;;;22.53;83.61;100451.71;1758249;81;21397;-79
2021/08/03 00:23:47;;;;;;;26.05;21.73;;;;;;;22.52;83.69;100466.06;1739340;81;20935;-79
2021/08/03 00:26:15;;;;;;;26.48;20.82;;;;;;;22.50;83.73;100468.94;1758356;80;21018;-80
2021/08/03 00:28:52;;;;;;;33.23;21.95;;;;;;;22.48;84.00;100467.45;1758367;81;20829;-81
2021/08/03 00:31:24;;;;;;;26.62;22.77;;;;;;;22.46;84.18;100470.28;1758540;81;21157;-81
2021/08/03 00:33:55;;;;;;;23.40;20.90;;;;;;;22.44;84.48;100477.63;1758325;81;20908;-79
2021/08/03 00:36:27;;;;;;;24.65;21.57;;;;;;;22.43;84.54;100465.27;1758675;81;20884;-82
2021/08/03 00:38:54;;;;;;;27.95;24.00;;;;;;;22.41;84.74;100467.78;1758399;81;20885;-81
2021/08/03 00:41:28;;;;;;;28.35;24.98;;;;;;;22.39;84.83;100477.33;1758627;81;20884;-79
2021/08/03 00:43:56;;;;;;;27.37;22.58;;;;;;;22.37;84.98;100483.34;1758451;81;21830;-79
2021/08/03 00:46:23;;;;;;;24.82;22.05;;;;;;;22.36;85.06;100487.00;1758777;81;20905;-81
2021/08/03 00:48:52;;;;;;;31.05;24.85;;;;;;;22.32;85.04;100481.19;1758634;81;20876;-81
2021/08/03 00:51:21;;;;;;;27.37;23.70;;;;;;;22.29;85.12;100480.69;1758941;80;20909;-80
2021/08/03 00:53:50;;;;;;;28.70;25.10;;;;;;;22.27;85.32;100486.20;1758845;80;20900;-81
2021/08/03 00:56:17;;;;;;;26.95;24.18;;;;;;;22.26;85.36;100489.06;1760894;81;21071;-83
2021/08/03 00:58:45;;;;;;;27.20;24.30;;;;;;;22.24;85.33;100489.73;1742113;81;20924;-82
2021/08/03 01:01:12;;;;;;;32.05;24.47;;;;;;;22.22;85.48;100493.90;1759292;81;20880;-82
2021/08/03 01:03:40;;;;;;;28.45;25.37;;;;;;;22.22;85.37;100490.41;1759899;81;20853;-79
2021/08/03 01:06:18;;;;;;;32.70;26.37;;;;;;;22.19;85.34;100495.56;1758888;81;20920;-79
2021/08/03 01:09:16;;;;;;;27.62;24.12;;;;;;;22.17;85.49;100498.08;1758099;81;21115;-79
2021/08/03 01:11:56;;;;;;;29.07;23.92;;;;;;;22.14;85.60;100500.56;1755507;81;20956;-80
2021/08/03 01:14:46;;;;;;;32.55;25.05;;;;;;;22.10;85.64;100510.77;1758368;81;20904;-81
2021/08/03 01:17:31;;;;;;;30.35;24.45;;;;;;;22.08;85.67;100506.60;1758457;81;20927;-80
2021/08/03 01:20:26;;;;;;;27.67;24.65;;;;;;;22.06;85.72;100504.60;1742327;82;20917;-73
2021/08/03 01:23:25;;;;;;;27.48;24.27;;;;;;;22.02;85.76;100504.60;1742126;82;22176;-73
2021/08/03 01:26:04;;;;;;;24.60;22.02;;;;;;;21.98;85.96;100499.27;1742304;82;20896;-74
2021/08/03 01:28:34;;;;;;;29.02;24.02;;;;;;;21.94;86.04;100491.61;1742291;82;20900;-72
2021/08/03 01:31:06;;;;;;;28.73;23.70;;;;;;;21.91;86.04;100497.77;1742234;82;20930;-74
2021/08/03 01:33:34;;;;;;;26.95;24.27;;;;;;;21.89;86.13;100498.44;1742415;82;20936;-74
2021/08/03 01:36:04;;;;;;;40.95;27.55;;;;;;;21.87;86.32;100500.44;1742301;82;21135;-73
2021/08/03 01:38:31;;;;;;;31.37;26.70;;;;;;;21.85;86.53;100500.60;1742159;82;20912;-73
2021/08/03 01:41:07;;;;;;;32.70;25.20;;;;;;;21.83;86.76;100495.10;1717767;82;21568;-73
2021/08/03 01:43:36;;;;;;;27.50;24.47;;;;;;;21.81;86.95;100496.62;1742234;82;21445;-74
2021/08/03 01:46:02;;;;;;;30.95;25.27;;;;;;;21.79;87.02;100493.77;1742519;82;20909;-73
2021/08/03 01:48:31;;;;;;;29.55;26.05;;;;;;;21.77;87.14;100499.30;1742313;82;21095;-74
2021/08/03 01:50:58;;;;;;;29.87;25.00;;;;;;;21.76;87.39;100497.61;1742499;82;21007;-75
2021/08/03 01:53:27;;;;;;;30.08;25.37;;;;;;;21.76;87.62;100493.61;1742269;82;20986;-74
2021/08/03 01:55:57;;;;;;;27.65;24.23;;;;;;;21.76;87.79;100497.61;1743282;81;21124;-73
2021/08/03 01:58:25;;;;;;;26.85;24.23;;;;;;;21.77;87.89;100498.47;1757978;81;20999;-73
2021/08/03 02:00:54;;;;;;;27.82;24.92;;;;;;;21.76;88.01;100498.95;1735984;82;21514;-73
2021/08/03 02:03:23;;;;;;;27.93;24.77;;;;;;;21.75;88.05;100495.96;1744658;82;21398;-73
2021/08/03 02:05:52;;;;;;;26.30;23.50;;;;;;;21.75;88.12;100495.96;1744856;81;20870;-74
2021/08/03 02:08:22;;;;;;;26.62;23.77;;;;;;;21.76;88.18;100491.45;1744555;81;20865;-75
2021/08/03 02:10:52;;;;;;;27.52;23.62;;;;;;;21.76;88.23;100496.78;1744464;81;20920;-74
2021/08/03 02:13:18;;;;;;;25.70;23.20;;;;;;;21.73;88.11;100507.30;1734250;82;21771;-74
2021/08/03 02:15:46;;;;;;;30.05;25.17;;;;;;;21.72;88.08;100501.61;1745575;81;20861;-72
2021/08/03 02:18:16;;;;;;;26.62;22.80;;;;;;;21.71;88.10;100505.30;1735144;82;20888;-73
2021/08/03 02:20:45;;;;;;;24.87;22.50;;;;;;;21.70;88.09;100506.31;1744805;81;20885;-74
2021/08/03 02:23:14;;;;;;;28.17;23.38;;;;;;;21.68;88.15;100513.14;1744679;81;20849;-73
2021/08/03 02:25:42;;;;;;;24.80;22.35;;;;;;;21.66;88.20;100511.14;1744905;81;22166;-74
2021/08/03 02:28:09;;;;;;;25.23;22.55;;;;;;;21.68;88.12;100520.33;1744482;82;20901;-74
2021/08/03 02:30:38;;;;;;;24.80;21.62;;;;;;;21.66;88.15;100515.14;1744531;81;21493;-74
2021/08/03 02:33:08;;;;;;;24.23;21.97;;;;;;;21.67;88.26;100525.31;1733972;82;21035;-74
2021/08/03 02:36:02;;;;;;;25.35;20.77;;;;;;;21.66;88.38;100532.49;1744882;82;20988;-74
2021/08/03 02:38:30;;;;;;;26.35;23.50;;;;;;;21.66;88.41;100527.66;1743650;82;21226;-74
2021/08/03 02:40:57;;;;;;;24.87;22.25;;;;;;;21.66;88.49;100520.48;1734066;82;21334;-74
2021/08/03 02:43:27;;;;;;;23.98;21.45;;;;;;;21.66;88.44;100519.66;1744664;82;21394;-74
2021/08/03 02:45:57;;;;;;;23.67;21.30;;;;;;;21.66;88.45;100530.33;1744573;81;21015;-74
2021/08/03 02:48:25;;;;;;;23.90;21.40;;;;;;;21.66;88.43;100528.48;1744679;81;20945;-74
2021/08/03 02:50:52;;;;;;;28.17;22.32;;;;;;;21.66;88.33;100532.49;1744761;82;21538;-73
2021/08/03 02:53:31;;;;;;;24.25;21.70;;;;;;;21.68;88.37;100539.01;1744755;82;20956;-73
2021/08/03 02:56:11;;;;;;;26.25;23.42;;;;;;;21.68;88.19;100539.01;1744644;82;20924;-73
2021/08/03 02:58:55;;;;;;;25.72;21.80;;;;;;;21.68;87.91;100537.17;1735533;82;21371;-74
2021/08/03 03:01:26;;;;;;;23.85;20.32;;;;;;;21.69;87.91;100533.98;1744438;82;20925;-74
2021/08/03 03:04:02;;;;;;;23.40;20.72;;;;;;;21.70;87.85;100524.49;1744931;80;21165;-74
2021/08/03 03:06:31;;;;;;;22.90;20.57;;;;;;;21.70;87.83;100524.49;1733880;82;20984;-74
2021/08/03 03:08:58;;;;;;;23.95;21.57;;;;;;;21.71;87.97;100533.33;1710575;82;20928;-73
2021/08/03 03:11:28;;;;;;;25.08;21.60;;;;;;;21.72;88.16;100542.52;1744572;82;20873;-73
2021/08/03 03:14:02;;;;;;;27.07;23.10;;;;;;;21.75;88.33;100550.68;1744809;80;20928;-74
2021/08/03 03:16:35;;;;;;;24.00;21.57;;;;;;;21.77;88.35;100543.34;1734234;82;20834;-76
2021/08/03 03:19:05;;;;;;;23.90;21.60;;;;;;;21.80;88.29;100543.00;1744782;82;21331;-74
2021/08/03 03:21:32;;;;;;;22.73;20.55;;;;;;;21.83;88.24;100539.16;1744511;81;21355;-73
2021/08/03 03:23:59;;;;;;;27.02;21.95;;;;;;;21.86;88.29;100539.66;1744802;82;21541;-74
2021/08/03 03:26:29;;;;;;;26.55;22.15;;;;;;;21.90;88.31;100539.67;1744609;82;20885;-74
2021/08/03 03:28:57;;;;;;;25.32;21.73;;;;;;;21.96;88.29;100541.33;1744776;82;21777;-76
2021/08/03 03:31:29;;;;;;;24.18;21.48;;;;;;;21.99;87.59;100541.84;1744421;82;20858;-74
2021/08/03 03:34:00;;;;;;;24.50;22.00;;;;;;;22.04;86.91;100539.48;1744780;82;20947;-75
2021/08/03 03:36:30;;;;;;;28.40;22.07;;;;;;;22.08;86.31;100541.33;1744475;80;20893;-73
2021/08/03 03:38:59;;;;;;;28.45;22.77;;;;;;;22.13;86.18;100545.14;1744980;82;20889;-73
2021/08/03 03:41:28;;;;;;;26.48;23.70;;;;;;;22.19;86.12;100544.98;1744421;82;21142;-73
2021/08/03 03:43:56;;;;;;;29.48;22.67;;;;;;;22.24;86.20;100552.52;1744445;82;21398;-74
2021/08/03 03:46:29;;;;;;;25.40;22.65;;;;;;;22.29;86.44;100550.98;1744845;82;20885;-72
2021/08/03 03:49:02;;;;;;;;;;;;;;;22.33;86.52;100556.32;1747408;80;20909;-72
2021/08/03 03:51:30;;;;;;;25.62;22.67;;;;;;;22.39;86.55;100562.84;1744819;82;20394;-72
2021/08/03 03:54:05;;;;;;;26.35;21.50;;;;;;;22.41;86.51;100554.63;1744778;81;21089;-72
2021/08/03 03:56:50;;;;;;;23.95;21.45;;;;;;;22.46;86.35;100561.66;1744882;82;20897;-74
2021/08/03 03:59:21;;;;;;;24.30;19.73;;;;;;;22.49;86.30;100554.61;1744453;81;20874;-75
2021/08/03 04:01:51;;;;;;;22.82;19.73;;;;;;;22.52;86.24;100552.45;1753839;81;20948;-73
2021/08/03 04:04:18;;;;;;;22.02;19.52;;;;;;;22.56;86.06;100545.73;1757166;81;20893;-75
2021/08/03 04:06:46;;;;;;;26.52;23.55;;;;;;;22.59;85.96;100557.94;1757915;81;21568;-75
2021/08/03 04:09:20;;;;;;;25.23;22.60;;;;;;;22.63;85.53;100555.22;1757797;81;20873;-74
2021/08/03 04:11:50;;;;;;;30.40;24.80;;;;;;;22.68;85.20;100554.73;1758407;81;21485;-72
2021/08/03 04:14:27;;;;;;;25.70;23.05;;;;;;;22.73;85.02;100568.41;1757951;81;20992;-71
2021/08/03 04:16:57;;;;;;;26.87;23.77;;;;;;;22.78;84.87;100569.23;1757965;80;21437;-72
2021/08/03 04:19:25;;;;;;;26.20;21.33;;;;;;;22.82;84.62;100565.20;1758108;81;21136;-73
2021/08/03 04:21:52;;;;;;;24.35;21.85;;;;;;;22.83;84.45;100569.02;1757948;80;20892;-73
2021/08/03 04:24:19;;;;;;;26.95;22.90;;;;;;;22.87;84.47;100573.53;1757913;81;20884;-71
2021/08/03 04:26:47;;;;;;;24.15;21.42;;;;;;;22.89;84.60;100576.36;1758001;80;20983;-72
2021/08/03 04:29:15;;;;;;;23.22;20.82;;;;;;;22.91;84.28;100571.67;1757977;81;20963;-74
2021/08/03 04:31:42;;;;;;;26.75;22.07;;;;;;;22.94;83.89;100572.68;1758068;81;21692;-74
2021/08/03 04:34:09;;;;;;;24.63;22.15;;;;;;;22.98;83.70;100575.82;1757788;81;20900;-73
2021/08/03 04:36:36;;;;;;;29.40;26.48;;;;;;;23.01;83.70;100569.31;1758145;80;20956;-74
2021/08/03 04:39:10;;;;;;;27.05;24.18;;;;;;;23.07;83.78;100572.64;1757890;81;20849;-74
2021/08/03 04:41:32;;;;;;;26.30;23.50;;;;;;;23.11;83.73;100565.94;1757252;81;21527;-76
2021/08/03 04:43:59;;;;;;;23.45;20.77;;;;;;;23.16;83.72;100572.92;1757891;81;21435;-75
2021/08/03 04:46:27;;;;;;;21.97;19.52;;;;;;;23.20;83.67;100578.77;1757568;81;21461;-73
2021/08/03 04:48:53;;;;;;;25.92;20.37;;;;;;;23.26;83.47;100580.75;1758068;80;20896;-73
2021/08/03 04:51:20;;;;;;;19.87;17.70;;;;;;;23.33;83.15;100587.05;1757977;81;20896;-73
2021/08/03 04:53:48;;;;;;;20.65;18.50;;;;;;;23.39;82.95;100578.33;1758052;81;20975;-72
2021/08/03 04:56:14;;;;;;;21.15;18.90;;;;;;;23.44;82.64;100583.97;1758028;80;21762;-73
2021/08/03 04:58:45;;;;;;;24.47;18.35;;;;;;;23.50;82.33;100578.40;1758170;80;20889;-73
2021/08/03 05:01:12;;;;;;;20.02;17.87;;;;;;;23.57;82.07;100574.02;1753823;81;20917;-72
2021/08/03 05:03:39;;;;;;;18.10;14.58;;;;;;;23.67;81.96;100584.48;1744608;81;20925;-74
2021/08/03 05:06:06;;;;;;;16.85;13.88;;;;;;;23.75;81.39;100592.50;1744652;81;21007;-72
2021/08/03 05:08:34;;;;;;;15.15;13.60;;;;;;;23.82;80.92;100586.75;1734070;82;20917;-73
2021/08/03 05:11:02;;;;;;;15.98;12.78;;;;;;;23.90;80.36;100600.08;1744812;82;21330;-71
2021/08/03 05:13:28;;;;;;;14.23;12.50;;;;;;;23.95;79.72;100599.03;1744699;81;20897;-72
2021/08/03 05:15:56;;;;;;;14.87;13.38;;;;;;;23.99;79.28;100605.70;1744540;80;20976;-71
2021/08/03 05:18:23;;;;;;;13.98;12.00;;;;;;;24.05;79.05;100606.80;1744557;82;20877;-72
2021/08/03 05:20:50;;;;;;;12.73;11.63;;;;;;;24.11;78.80;100602.58;1744642;81;21130;-71
2021/08/03 05:23:17;;;;;;;13.10;11.57;;;;;;;24.18;78.30;100598.16;1744520;82;20984;-72
2021/08/03 05:25:44;;;;;;;12.65;11.55;;;;;;;24.27;77.87;100593.55;1744589;81;20913;-71
2021/08/03 05:28:10;;;;;;;13.15;11.85;;;;;;;24.39;77.60;100598.30;1744646;82;21041;-70
2021/08/03 05:30:37;;;;;;;11.35;10.43;;;;;;;24.59;76.84;100604.50;1744784;82;20924;-70
2021/08/03 05:33:04;;;;;;;14.28;12.75;;;;;;;24.87;76.56;100607.34;1744641;81;21521;-72
2021/08/03 05:35:31;;;;;;;14.85;11.95;;;;;;;25.10;75.58;100609.92;1744485;81;20908;-71
2021/08/03 05:37:58;;;;;;;14.20;12.10;;;;;;;25.23;74.33;100612.80;1744658;80;21406;-69
2021/08/03 05:40:25;;;;;;;13.22;11.83;;;;;;;25.31;74.04;100628.47;1744543;80;20940;-72
2021/08/03 05:42:52;;;;;;;15.13;12.80;;;;;;;25.36;73.74;100627.38;1744565;82;20921;-73
2021/08/03 05:45:19;;;;;;;12.95;11.75;;;;;;;25.40;73.10;100625.47;1744564;82;21153;-72
2021/08/03 05:47:46;;;;;;;14.40;12.45;;;;;;;25.46;72.29;100628.41;1744872;82;21488;-71
2021/08/03 05:50:13;;;;;;;13.35;11.80;;;;;;;25.50;72.31;100627.02;1745085;81;20901;-71
2021/08/03 05:52:41;;;;;;;13.53;12.15;;;;;;;25.55;71.81;100621.41;1744560;82;21485;-72
2021/08/03 05:55:08;;;;;;;15.60;12.80;;;;;;;25.64;72.04;100620.78;1744926;82;20964;-72
2021/08/03 05:57:35;;;;;;;13.15;11.65;;;;;;;25.72;71.89;100619.30;1744786;82;21800;-72
2021/08/03 06:00:05;;;;;;;13.55;10.82;;;;;;;25.92;71.56;100606.59;1744527;82;20842;-73
2021/08/03 06:02:34;;;;;;;12.58;11.20;;;;;;;26.15;70.65;100599.16;1744065;81;20956;-74
2021/08/03 06:05:01;;;;;;;12.80;11.45;;;;;;;26.49;69.84;100597.53;1744670;82;20928;-73
2021/08/03 06:07:28;;;;;;;10.82;9.85;;;;;;;26.82;69.02;100599.62;1744614;81;20941;-73
2021/08/03 06:09:57;;;;;;;12.60;11.25;;;;;;;27.11;67.95;100607.92;1744714;81;20981;-73
2021/08/03 06:12:27;;;;;;;12.75;11.30;;;;;;;27.31;66.89;100622.02;1744577;80;21373;-72
2021/08/03 06:14:56;;;;;;;14.73;11.33;;;;;;;27.42;65.53;100619.55;1744619;82;21008;-73
2021/08/03 06:17:31;;;;;;;13.48;11.05;;;;;;;27.61;64.59;100622.49;1744504;82;20900;-73
2021/08/03 06:19:58;;;;;;;13.50;11.15;;;;;;;27.87;64.18;100623.09;1740669;81;20913;-73
2021/08/03 06:22:24;;;;;;;12.82;11.30;;;;;;;28.23;62.78;100614.58;1744473;81;21515;-73
2021/08/03 06:24:51;;;;;;;12.68;11.20;;;;;;;28.68;61.93;100613.92;1744818;81;20901;-71
2021/08/03 06:27:20;;;;;;;10.68;9.13;;;;;;;29.13;59.88;100618.08;1744623;82;21454;-72
2021/08/03 06:29:49;;;;;;;13.55;11.35;;;;;;;29.63;59.35;100621.44;1744523;82;21378;-71
2021/08/03 06:32:16;;;;;;;12.68;11.43;;;;;;;30.05;56.03;100618.55;1734092;82;20929;-72
2021/08/03 06:34:43;;;;;;;11.50;10.48;;;;;;;30.16;55.58;100611.59;1744604;81;21143;-72
2021/08/03 06:37:11;;;;;;;12.30;10.95;;;;;;;30.31;55.54;100605.88;1744542;82;20956;-69
2021/08/03 06:39:38;;;;;;;11.55;10.35;;;;;;;30.33;54.48;100606.48;1744505;82;21465;-73
2021/08/03 06:42:13;;;;;;;11.45;10.45;;;;;;;30.48;55.53;100609.67;1744509;81;20933;-73
2021/08/03 06:45:06;;;;;;;12.90;11.57;;;;;;;30.68;54.20;100611.31;1744725;82;20897;-74
2021/08/03 06:47:39;;;;;;;14.13;12.40;;;;;;;30.87;54.22;100609.48;1744827;81;21118;-75
2021/08/03 06:50:07;;;;;;;12.75;11.60;;;;;;;31.00;53.63;100614.73;1744228;82;20992;-76
2021/08/03 06:52:35;;;;;;;11.68;10.48;;;;;;;31.11;53.27;100615.32;1744484;81;20878;-76
2021/08/03 06:55:06;;;;;;;13.35;12.03;;;;;;;31.13;53.24;100618.63;1744649;81;20886;-74
2021/08/03 06:57:35;;;;;;;13.18;11.95;;;;;;;31.07;52.28;100627.66;1744663;82;21418;-74
2021/08/03 07:00:06;;;;;;;14.93;12.82;;;;;;;30.94;52.35;100632.70;1744240;82;21767;-73
2021/08/03 07:02:38;;;;;;;13.90;12.55;;;;;;;30.82;52.46;100622.84;1744158;81;20928;-75
2021/08/03 07:05:12;;;;;;;13.75;12.60;;;;;;;30.73;52.63;100620.43;1734022;82;21366;-76
2021/08/03 07:07:39;;;;;;;16.10;14.50;;;;;;;30.70;52.71;100622.75;1744784;82;20928;-73
2021/08/03 07:10:08;;;;;;;15.28;12.55;;;;;;;30.63;52.66;100628.23;1744520;81;21424;-74
2021/08/03 07:12:35;;;;;;;14.05;12.58;;;;;;;30.54;52.70;100631.76;1744753;82;21545;-74
2021/08/03 07:15:03;;;;;;;13.13;11.95;;;;;;;30.54;51.91;100637.70;1744532;82;20858;-75
2021/08/03 07:17:31;;;;;;;11.00;9.98;;;;;;;30.42;51.80;100643.56;1744588;82;20883;-75
2021/08/03 07:20:03;;;;;;;14.28;11.93;;;;;;;30.38;52.43;100649.11;1744596;81;20964;-72
2021/08/03 07:22:27;;;;;;;13.88;12.55;;;;;;;30.61;52.79;100645.76;1743657;81;20916;-74
2021/08/03 07:24:54;;;;;;;14.47;13.05;;;;;;;31.07;52.04;100648.52;1744461;82;21100;-73
2021/08/03 07:27:21;;;;;;;13.18;10.63;;;;;;;31.32;51.41;100653.82;1744700;82;20932;-76
2021/08/03 07:29:48;;;;;;;10.80;10.05;;;;;;;31.55;50.85;100653.11;1744536;81;20877;-73
2021/08/03 07:32:14;;;;;;;9.43;8.63;;;;;;;31.93;50.83;100651.95;1744805;80;20994;-74
2021/08/03 07:34:42;;;;;;;11.88;9.28;;;;;;;32.39;49.42;100652.56;1744486;82;20924;-74
2021/08/03 07:37:08;;;;;;;9.13;8.30;;;;;;;32.61;48.28;100660.13;1744811;82;21418;-74
2021/08/03 07:39:36;;;;;;;9.45;8.43;;;;;;;32.75;47.06;100659.34;1744435;82;20948;-74
2021/08/03 07:42:04;;;;;;;9.95;8.83;;;;;;;32.57;46.65;100662.51;1744806;80;21315;-75
2021/08/03 07:44:30;;;;;;;9.35;8.45;;;;;;;32.26;46.83;100662.80;1744512;81;20936;-79
2021/08/03 07:46:59;;;;;;;9.35;8.43;;;;;;;32.22;46.79;100652.97;1744008;81;20886;-79
2021/08/03 07:49:26;;;;;;;9.00;8.18;;;;;;;32.37;47.10;100650.61;1744609;82;21461;-77
2021/08/03 07:51:53;;;;;;;8.90;8.10;;;;;;;32.71;46.98;100654.93;1744561;82;20912;-79
2021/08/03 07:54:19;;;;;;;8.80;8.10;;;;;;;32.94;45.86;100648.62;1744787;82;20964;-76
2021/08/03 07:56:46;;;;;;;13.18;7.97;;;;;;;33.10;45.87;100644.35;1744684;82;21421;-74
2021/08/03 07:59:13;;;;;;;8.95;8.08;;;;;;;33.21;45.66;100642.12;1708967;83;20888;-75
2021/08/03 08:01:40;;;;;;;8.68;7.90;;;;;;;33.41;45.76;100643.05;1708687;82;21460;-78
2021/08/03 08:04:07;;;;;;;8.50;7.78;;;;;;;33.51;44.34;100642.44;1708670;84;20983;-76
2021/08/03 08:06:34;;;;;;;7.72;6.97;;;;;;;33.54;43.75;100640.58;1744536;81;20925;-73
2021/08/03 08:09:02;;;;;;;7.83;7.03;;;;;;;33.63;43.53;100636.42;1744765;82;20897;-75
2021/08/03 08:11:28;;;;;;;9.70;7.22;;;;;;;33.65;43.38;100639.72;1744462;82;20881;-75
2021/08/03 08:13:55;;;;;;;7.00;6.30;;;;;;;33.85;42.95;100643.33;1744369;82;21135;-75
2021/08/03 08:16:24;;;;;;;8.13;6.90;;;;;;;34.03;43.30;100644.98;1744516;81;21362;-71
2021/08/03 08:18:50;;;;;;;7.60;6.95;;;;;;;33.97;42.77;100650.59;1744488;82;20889;-74
2021/08/03 08:21:17;;;;;;;7.20;6.60;;;;;;;33.87;42.39;100653.16;1708720;83;21437;-73
2021/08/03 08:23:45;;;;;;;7.80;6.47;;;;;;;33.79;43.14;100650.29;1708835;82;20924;-76
2021/08/03 08:26:12;;;;;;;7.30;6.65;;;;;;;33.97;43.26;100647.87;1708776;84;22007;-74
2021/08/03 08:28:38;;;;;;;7.12;6.53;;;;;;;34.08;43.13;100649.69;1708747;84;20924;-75
2021/08/03 08:31:05;;;;;;;6.75;5.70;;;;;;;34.38;43.80;100649.92;1708892;84;20970;-75
2021/08/03 08:33:32;;;;;;;6.08;5.67;;;;;;;34.77;43.64;100641.21;1708823;84;21398;-75
2021/08/03 08:36:01;;;;;;;6.65;5.97;;;;;;;35.20;42.84;100647.78;1708971;84;20877;-74
2021/08/03 08:38:27;;;;;;;6.33;5.72;;;;;;;35.56;41.04;100640.52;1708993;84;21103;-78
2021/08/03 08:40:54;;;;;;;5.35;4.87;;;;;;;35.70;39.96;100637.67;1708756;82;20913;-73
2021/08/03 08:43:21;;;;;;;6.20;5.75;;;;;;;35.72;40.25;100634.69;1744646;82;20920;-72
2021/08/03 08:45:49;;;;;;;6.62;5.45;;;;;;;35.80;39.26;100631.50;1744339;81;20940;-72
2021/08/03 08:48:18;;;;;;;6.03;5.45;;;;;;;35.73;40.02;100643.14;1687309;84;21424;-72
2021/08/03 08:50:44;;;;;;;8.23;5.15;;;;;;;35.88;40.07;100641.92;1744684;82;21180;-72
2021/08/03 08:53:11;;;;;;;6.83;6.15;;;;;;;36.06;39.41;100637.44;1744527;82;20917;-71
2021/08/03 08:55:38;;;;;;;6.25;5.75;;;;;;;36.28;39.06;100634.59;1709023;84;20928;-71
2021/08/03 08:58:05;;;;;;;5.90;5.33;;;;;;;36.49;39.24;100636.92;1708868;84;20884;-72
2021/08/03 09:00:32;;;;;;;6.53;5.58;;;;;;;36.60;37.85;100629.64;1708791;84;20928;-69
2021/08/03 09:02:59;;;;;;;5.70;5.08;;;;;;;36.55;37.96;100626.02;1708787;83;21523;-72
2021/08/03 09:05:33;;;;;;;5.62;5.08;;;;;;;36.51;38.05;100618.91;1708716;82;21006;-71
2021/08/03 09:08:03;;;;;;;5.60;5.20;;;;;;;36.56;38.32;100618.11;1708920;84;21335;-72
2021/08/03 09:10:43;;;;;;;5.53;5.03;;;;;;;36.49;36.86;100621.90;1708796;84;20904;-71
2021/08/03 09:13:20;;;;;;;5.50;5.10;;;;;;;36.31;37.75;100629.99;1708862;84;21088;-71
2021/08/03 09:16:01;;;;;;;5.58;5.05;;;;;;;36.26;38.03;100625.02;1708933;84;21092;-72
2021/08/03 09:18:44;;;;;;;5.37;4.87;;;;;;;36.39;37.88;100621.83;1710111;84;20959;-74
2021/08/03 09:21:23;;;;;;;6.00;5.40;;;;;;;36.51;37.01;100621.64;1710144;84;20944;-73
2021/08/03 09:23:59;;;;;;;6.42;5.25;;;;;;;36.68;36.89;100626.94;1709072;84;20869;-74
2021/08/03 09:26:46;;;;;;;5.45;5.00;;;;;;;36.66;36.11;100622.28;1709051;82;21010;-74
2021/08/03 09:29:15;;;;;;;5.20;4.80;;;;;;;36.60;36.28;100626.09;1708816;84;21091;-75
2021/08/03 09:31:52;;;;;;;4.83;4.42;;;;;;;36.57;36.53;100619.19;1708741;82;20952;-73
2021/08/03 09:34:19;;;;;;;5.60;5.10;;;;;;;36.52;36.73;100614.53;1744765;81;20976;-74
2021/08/03 09:36:56;;;;;;;5.65;5.15;;;;;;;36.22;36.61;100614.34;1744753;82;20945;-74
2021/08/03 09:39:41;;;;;;;5.05;4.67;;;;;;;36.02;37.70;100628.64;1744947;82;20859;-74
2021/08/03 09:42:16;;;;;;;4.95;4.47;;;;;;;35.67;37.08;100630.02;1744523;82;21084;-75
2021/08/03 09:44:50;;;;;;;5.30;4.83;;;;;;;35.37;37.79;100635.41;1708968;84;20971;-76
2021/08/03 09:47:18;;;;;;;7.28;4.95;;;;;;;35.33;38.39;100634.30;1708788;84;20980;-72
2021/08/03 09:49:50;;;;;;;5.65;3.90;;;;;;;35.33;38.73;100628.84;1708981;84;20936;-69
2021/08/03 09:52:24;;;;;;;5.22;4.75;;;;;;;35.33;39.14;100634.81;1708924;82;20991;-70
2021/08/03 09:55:10;;;;;;;6.67;6.03;;;;;;;35.17;38.63;100626.46;1708595;82;21147;-70
2021/08/03 09:57:38;;;;;;;5.85;5.37;;;;;;;34.94;38.59;100628.09;1735627;82;20936;-72
2021/08/03 10:00:27;;;;;;;8.28;5.50;;;;;;;34.74;39.07;100632.73;1744827;80;20917;-72
2021/08/03 10:02:54;;;;;;;6.12;5.05;;;;;;;34.64;39.79;100627.45;1744414;81;20944;-71
2021/08/03 10:05:21;;;;;;;6.78;6.28;;;;;;;34.62;39.88;100626.05;1744650;82;21358;-71
2021/08/03 10:07:49;;;;;;;6.67;6.03;;;;;;;34.63;39.37;100620.33;1744602;81;21166;-71
2021/08/03 10:10:16;;;;;;;5.60;5.20;;;;;;;34.81;39.63;100617.84;1744767;81;21524;-72
2021/08/03 10:12:43;;;;;;;6.22;5.28;;;;;;;34.95;39.05;100610.64;1744780;81;21386;-72
2021/08/03 10:15:12;;;;;;;5.10;4.65;;;;;;;34.97;38.04;100598.95;1734265;82;20929;-72
2021/08/03 10:17:41;;;;;;;4.65;4.35;;;;;;;34.62;38.10;100594.19;1708869;83;21018;-72
2021/08/03 10:20:13;;;;;;;7.47;5.55;;;;;;;34.21;38.54;100591.39;1708764;84;21154;-71
2021/08/03 10:22:47;;;;;;;6.20;4.97;;;;;;;33.96;38.80;100598.61;1744648;82;20873;-71
2021/08/03 10:25:15;;;;;;;10.53;5.40;;;;;;;33.77;38.82;100602.09;1708212;84;20931;-73
2021/08/03 10:27:52;;;;;;;4.95;4.65;;;;;;;33.60;39.48;100612.44;1708693;84;21447;-73
2021/08/03 10:30:34;;;;;;;6.30;5.33;;;;;;;33.64;40.16;100621.77;1708815;84;20932;-73
2021/08/03 10:33:10;;;;;;;5.97;5.58;;;;;;;33.70;40.30;100616.41;1708499;84;21841;-74
2021/08/03 10:35:47;;;;;;;10.70;6.08;;;;;;;33.79;40.79;100607.58;1708711;82;21433;-75
2021/08/03 10:38:27;;;;;;;5.78;5.37;;;;;;;33.88;39.17;100608.00;1709001;82;20897;-71
2021/08/03 10:40:57;;;;;;;8.40;5.90;;;;;;;33.78;39.55;100605.12;1707996;84;20947;-71
2021/08/03 10:43:35;;;;;;;6.37;5.83;;;;;;;33.68;39.70;100613.10;1744549;81;20873;-72
2021/08/03 10:46:16;;;;;;;6.30;5.67;;;;;;;33.57;40.42;100616.14;1744740;82;21522;-72
2021/08/03 10:48:43;;;;;;;6.62;5.53;;;;;;;33.57;40.39;100622.43;1744701;82;21591;-73
2021/08/03 10:51:23;;;;;;;6.22;5.47;;;;;;;33.53;40.17;100618.55;1744573;82;21418;-72
2021/08/03 10:54:09;;;;;;;6.20;5.60;;;;;;;33.32;39.72;100614.61;1744875;80;20921;-70
2021/08/03 10:57:02;;;;;;;5.97;5.45;;;;;;;33.03;40.65;100611.84;1744543;82;21490;-77
2021/08/03 10:59:34;;;;;;;6.33;5.83;;;;;;;32.93;41.61;100600.80;1744502;81;20917;-78
2021/08/03 11:02:04;;;;;;;5.97;5.08;;;;;;;32.86;42.43;100605.52;1744694;82;20893;-75
2021/08/03 11:04:54;;;;;;;8.45;5.60;;;;;;;32.70;42.25;100598.94;1754813;81;20849;-72
2021/08/03 11:07:34;;;;;;;5.33;4.72;;;;;;;32.43;42.90;100593.17;1758081;81;20945;-71
2021/08/03 11:10:11;;;;;;;5.75;4.87;;;;;;;32.17;43.03;100601.26;1758127;81;20935;-75
2021/08/03 11:12:45;;;;;;;5.35;4.85;;;;;;;31.83;43.16;100605.03;1757922;81;21156;-74
2021/08/03 11:15:26;;;;;;;5.87;4.83;;;;;;;31.60;44.65;100621.55;1757208;80;20892;-73
2021/08/03 11:17:56;;;;;;;5.37;4.97;;;;;;;31.47;44.73;100630.41;1757773;81;20857;-74
2021/08/03 11:20:47;;;;;;;5.97;5.42;;;;;;;31.28;44.77;100625.52;1758007;80;20860;-74
2021/08/03 11:23:17;;;;;;;5.50;5.00;;;;;;;31.01;45.20;100600.66;1757823;81;21514;-76
2021/08/03 11:25:47;;;;;;;4.67;4.37;;;;;;;30.66;45.76;100585.84;1758122;81;20995;-78
2021/08/03 11:28:20;;;;;;;5.72;4.83;;;;;;;30.25;46.16;100584.56;1721944;83;20880;-75
2021/08/03 11:30:51;;;;;;;5.05;4.75;;;;;;;29.95;47.15;100594.72;1721729;83;20978;-74